Batman, Turkey
Current Conditions -  °F | °C
As of 7:50 PM on Friday 24 Oct 2014 (Local Time) from LTCJ Reporting Station
Clear Clear  
Wind Chill: 59°   Ceiling: Unl
Heat Index: 59°   Visibility: 6mi
Dew Point: 45°   Wind: 1mph
Humidity: 59%   Direction: 10°N
Pressure: 30.06"   Gusts: NA
Location:  37.89°N, 41.13°E
Report Text: LTCJ 241650Z 01001KT CAVOK 15/07 Q1018
Loading
Personal Weather Stations






























Interactive Weather Map
Tropical Storm Tracking
New forecast layout! Learn more

10-Day Weather Forecast

Advertisements
Track Severe Weather on mobile